createdAt,value
2018-03-11T00:00:16.442Z,0.00
2018-03-11T00:01:16.435Z,0.00
2018-03-11T00:02:16.394Z,0.00
2018-03-11T00:03:16.386Z,0.00
2018-03-11T00:04:16.386Z,0.00
2018-03-11T00:05:16.420Z,0.00
2018-03-11T00:06:16.383Z,0.00
2018-03-11T00:07:16.403Z,0.00
2018-03-11T00:08:16.379Z,0.00
2018-03-11T00:09:16.382Z,0.00
2018-03-11T00:10:16.419Z,0.00
2018-03-11T00:11:16.392Z,0.00
2018-03-11T00:12:16.381Z,0.00
2018-03-11T00:13:16.380Z,0.00
2018-03-11T00:14:16.383Z,0.00
2018-03-11T00:15:16.416Z,0.00
2018-03-11T00:16:16.376Z,0.00
2018-03-11T00:17:16.374Z,0.00
2018-03-11T00:18:16.376Z,0.00
2018-03-11T00:19:16.371Z,0.00
2018-03-11T00:20:16.420Z,0.00
2018-03-11T00:21:16.384Z,0.00
2018-03-11T00:22:16.372Z,0.00
2018-03-11T00:23:16.371Z,0.00
2018-03-11T00:24:16.370Z,0.00
2018-03-11T00:25:16.412Z,0.00
2018-03-11T00:26:16.368Z,0.00
2018-03-11T00:27:16.370Z,0.00
2018-03-11T00:28:16.367Z,0.00
2018-03-11T00:29:16.395Z,0.00
2018-03-11T00:30:16.410Z,0.00
2018-03-11T00:31:16.415Z,0.00
2018-03-11T00:32:16.462Z,0.00
2018-03-11T00:33:16.371Z,0.00
2018-03-11T00:34:16.364Z,0.00
2018-03-11T00:35:16.368Z,0.00
2018-03-11T00:36:16.402Z,0.00
2018-03-11T00:37:16.366Z,0.00
2018-03-11T00:38:16.362Z,0.00
2018-03-11T00:39:16.361Z,0.00
2018-03-11T00:40:16.366Z,0.00
2018-03-11T00:41:16.407Z,0.00
2018-03-11T00:42:16.362Z,0.00
2018-03-11T00:43:16.372Z,0.00
2018-03-11T00:44:16.358Z,0.00
2018-03-11T00:45:16.419Z,0.00
2018-03-11T00:46:16.369Z,0.00
2018-03-11T00:47:16.400Z,0.00
2018-03-11T00:48:16.369Z,0.00
2018-03-11T00:49:16.358Z,0.00
2018-03-11T00:50:16.356Z,0.00
2018-03-11T00:51:16.400Z,0.00
2018-03-11T00:52:16.375Z,0.00
2018-03-11T00:53:16.354Z,0.00
2018-03-11T00:54:16.355Z,0.00
2018-03-11T00:55:16.354Z,0.00
2018-03-11T00:56:16.394Z,0.00
2018-03-11T00:57:16.355Z,0.00
2018-03-11T00:58:16.354Z,0.00
2018-03-11T00:59:16.351Z,0.00
2018-03-11T01:00:16.946Z,0.00
2018-03-11T01:01:16.387Z,0.00
2018-03-11T01:02:16.409Z,0.00
2018-03-11T01:03:16.348Z,0.00
2018-03-11T01:04:16.350Z,0.00
2018-03-11T01:05:16.350Z,0.00
2018-03-11T01:06:16.386Z,0.00
2018-03-11T01:07:16.348Z,0.00
2018-03-11T01:08:16.347Z,0.00
2018-03-11T01:09:16.348Z,0.00
2018-03-11T01:10:16.349Z,0.00
2018-03-11T01:11:16.386Z,0.00
2018-03-11T01:12:17.089Z,0.00
2018-03-11T01:13:16.340Z,0.00
2018-03-11T01:14:16.342Z,0.00
2018-03-11T01:15:16.342Z,0.00
2018-03-11T01:16:16.396Z,0.00
2018-03-11T01:17:16.341Z,0.00
2018-03-11T01:18:16.341Z,0.00
2018-03-11T01:19:16.364Z,0.00
2018-03-11T01:20:16.346Z,0.00
2018-03-11T01:21:16.390Z,0.00
2018-03-11T01:22:16.338Z,0.00
2018-03-11T01:23:16.338Z,0.00
2018-03-11T01:24:16.338Z,0.00
2018-03-11T01:25:16.337Z,0.00
2018-03-11T01:26:16.387Z,0.00
2018-03-11T01:27:16.338Z,0.00
2018-03-11T01:28:16.810Z,0.00
2018-03-11T01:29:16.336Z,0.00
2018-03-11T01:30:16.334Z,0.00
2018-03-11T01:31:16.385Z,0.00
2018-03-11T01:32:16.335Z,0.00
2018-03-11T01:33:16.357Z,0.00
2018-03-11T01:34:16.336Z,0.00
2018-03-11T01:35:16.333Z,0.00
2018-03-11T01:36:16.377Z,0.00
2018-03-11T01:37:16.332Z,0.00
2018-03-11T01:38:17.319Z,0.00
2018-03-11T01:39:16.329Z,0.00
2018-03-11T01:40:16.354Z,0.00
2018-03-11T01:41:16.372Z,0.00
2018-03-11T01:42:16.330Z,0.00
2018-03-11T01:43:16.355Z,0.00
2018-03-11T01:44:16.330Z,0.00
2018-03-11T01:45:16.354Z,0.00
2018-03-11T01:46:16.367Z,0.00
2018-03-11T01:47:16.343Z,0.00
2018-03-11T01:48:16.327Z,0.00
2018-03-11T01:49:16.328Z,0.00
2018-03-11T01:50:16.326Z,0.00
2018-03-11T01:51:16.368Z,0.00
2018-03-11T01:52:16.327Z,0.00
2018-03-11T01:53:16.324Z,0.00
2018-03-11T01:54:16.329Z,0.00
2018-03-11T01:55:16.324Z,0.00
2018-03-11T01:56:16.367Z,0.00
2018-03-11T01:57:16.341Z,0.00
2018-03-11T01:58:16.329Z,0.00
2018-03-11T01:59:16.323Z,0.00
2018-03-11T02:00:16.323Z,0.00
2018-03-11T02:01:17.387Z,0.00
2018-03-11T02:02:16.321Z,0.00
2018-03-11T02:03:16.322Z,0.00
2018-03-11T02:04:16.351Z,0.00
2018-03-11T02:05:16.330Z,0.00
2018-03-11T02:06:16.360Z,0.00
2018-03-11T02:07:16.321Z,0.00
2018-03-11T02:08:16.319Z,0.00
2018-03-11T02:09:16.319Z,0.00
2018-03-11T02:10:16.319Z,0.00
2018-03-11T02:11:16.374Z,0.00
2018-03-11T02:12:16.319Z,0.00
2018-03-11T02:13:16.318Z,0.00
2018-03-11T02:14:16.316Z,0.00
2018-03-11T02:15:16.317Z,0.00
2018-03-11T02:16:16.358Z,0.00
2018-03-11T02:17:16.318Z,0.00
2018-03-11T02:18:16.314Z,0.00
2018-03-11T02:19:16.319Z,0.00
2018-03-11T02:20:16.323Z,0.00
2018-03-11T02:21:16.361Z,0.00
2018-03-11T02:22:16.351Z,0.00
2018-03-11T02:23:16.317Z,0.00
2018-03-11T02:24:16.314Z,0.00
2018-03-11T02:25:16.312Z,0.00
2018-03-11T02:26:16.313Z,0.00
2018-03-11T02:27:16.380Z,0.00
2018-03-11T02:28:16.312Z,0.00
2018-03-11T02:29:16.310Z,0.00
2018-03-11T02:30:16.723Z,0.00
2018-03-11T02:31:16.351Z,0.00
2018-03-11T02:32:16.311Z,0.00
2018-03-11T02:33:16.309Z,0.00
2018-03-11T02:34:16.309Z,0.00
2018-03-11T02:35:16.315Z,0.00
2018-03-11T02:36:16.345Z,0.00
2018-03-11T02:37:16.424Z,0.00
2018-03-11T02:38:16.304Z,0.00
2018-03-11T02:39:16.307Z,0.00
2018-03-11T02:40:16.304Z,0.00
2018-03-11T02:41:16.361Z,0.00
2018-03-11T02:42:16.303Z,0.00
2018-03-11T02:43:16.303Z,0.00
2018-03-11T02:44:16.305Z,0.00
2018-03-11T02:45:16.302Z,0.00
2018-03-11T02:46:16.344Z,0.00
2018-03-11T02:47:16.303Z,0.00
2018-03-11T02:48:16.301Z,0.00
2018-03-11T02:49:16.302Z,0.00
2018-03-11T02:50:16.299Z,0.00
2018-03-11T02:51:16.360Z,0.00
2018-03-11T02:52:16.302Z,0.00
2018-03-11T02:53:16.299Z,0.00
2018-03-11T02:54:16.305Z,0.00
2018-03-11T02:55:16.295Z,0.00
2018-03-11T02:56:16.339Z,0.00
2018-03-11T02:57:17.129Z,0.00
2018-03-11T02:58:16.295Z,0.00
2018-03-11T02:59:16.295Z,0.00
2018-03-11T03:00:16.291Z,0.00
2018-03-11T03:01:16.340Z,0.00
2018-03-11T03:02:16.543Z,0.00
2018-03-11T03:03:16.291Z,0.00
2018-03-11T03:04:16.286Z,0.00
2018-03-11T03:05:16.284Z,0.00
2018-03-11T03:06:16.288Z,0.00
2018-03-11T03:07:16.324Z,0.00
2018-03-11T03:08:16.292Z,0.00
2018-03-11T03:09:16.280Z,0.00
2018-03-11T03:10:16.277Z,0.00
2018-03-11T03:11:16.278Z,0.00
2018-03-11T03:12:16.315Z,0.00
2018-03-11T03:13:16.980Z,0.00
2018-03-11T03:14:16.273Z,0.00
2018-03-11T03:15:16.282Z,0.00
2018-03-11T03:16:16.278Z,0.00
2018-03-11T03:17:16.572Z,0.00
2018-03-11T03:18:16.272Z,0.00
2018-03-11T03:19:16.269Z,0.00
2018-03-11T03:20:16.270Z,0.00
2018-03-11T03:21:16.269Z,0.00
2018-03-11T03:22:16.321Z,0.00
2018-03-11T03:23:16.269Z,0.00
2018-03-11T03:24:16.266Z,0.00
2018-03-11T03:25:16.265Z,0.00
2018-03-11T03:26:16.270Z,0.00
2018-03-11T03:27:16.308Z,0.00
2018-03-11T03:28:16.264Z,0.00
2018-03-11T03:29:16.261Z,0.00
2018-03-11T03:30:16.263Z,0.00
2018-03-11T03:31:16.847Z,0.00
2018-03-11T03:32:16.325Z,0.00
2018-03-11T03:33:16.261Z,0.00
2018-03-11T03:34:16.266Z,0.00
2018-03-11T03:35:16.257Z,0.00
2018-03-11T03:36:16.258Z,0.00
2018-03-11T03:37:16.293Z,0.00
2018-03-11T03:38:16.298Z,0.00
2018-03-11T03:39:16.280Z,0.00
2018-03-11T03:40:16.259Z,0.00
2018-03-11T03:41:16.252Z,0.00
2018-03-11T03:42:16.251Z,0.00
2018-03-11T03:43:16.294Z,0.00
2018-03-11T03:44:16.251Z,0.00
2018-03-11T03:45:16.325Z,0.00
2018-03-11T03:46:16.272Z,0.00
2018-03-11T03:47:16.252Z,0.00
2018-03-11T03:48:16.293Z,0.00
2018-03-11T03:49:16.265Z,0.00
2018-03-11T03:50:16.249Z,0.00
2018-03-11T03:51:16.248Z,0.00
2018-03-11T03:52:16.248Z,0.00
2018-03-11T03:53:16.292Z,0.00
2018-03-11T03:54:16.243Z,0.00
2018-03-11T03:55:16.245Z,0.00
2018-03-11T03:56:16.248Z,0.00
2018-03-11T03:57:16.284Z,0.00
2018-03-11T03:58:16.243Z,0.00
2018-03-11T03:59:16.242Z,0.00
2018-03-11T04:00:16.242Z,0.00
2018-03-11T04:01:16.241Z,0.00
2018-03-11T04:02:16.281Z,0.00
2018-03-11T04:03:16.251Z,0.00
2018-03-11T04:04:16.239Z,0.00
2018-03-11T04:05:16.235Z,0.00
2018-03-11T04:06:16.238Z,0.00
2018-03-11T04:07:16.261Z,0.00
2018-03-11T04:08:16.271Z,0.00
2018-03-11T04:09:16.222Z,0.00
2018-03-11T04:10:16.239Z,0.00
2018-03-11T04:11:16.219Z,0.00
2018-03-11T04:12:16.276Z,0.00
2018-03-11T04:13:16.217Z,0.00
2018-03-11T04:14:16.216Z,0.00
2018-03-11T04:15:16.226Z,0.00
2018-03-11T04:16:16.247Z,0.00
2018-03-11T04:17:16.235Z,0.00
2018-03-11T04:18:16.254Z,0.00
2018-03-11T04:19:16.223Z,0.00
2018-03-11T04:20:16.234Z,0.00
2018-03-11T04:21:16.220Z,0.00
2018-03-11T04:22:16.246Z,0.00
2018-03-11T04:23:16.818Z,0.00
2018-03-11T04:24:16.219Z,0.00
2018-03-11T04:25:16.218Z,0.00
2018-03-11T04:26:16.218Z,0.00
2018-03-11T04:27:16.265Z,0.00
2018-03-11T04:28:16.215Z,0.00
2018-03-11T04:29:16.212Z,0.00
2018-03-11T04:30:16.201Z,0.00
2018-03-11T04:31:16.201Z,0.00
2018-03-11T04:32:16.249Z,0.00
2018-03-11T04:33:16.207Z,0.00
2018-03-11T04:34:16.633Z,0.00
2018-03-11T04:35:16.208Z,0.00
2018-03-11T04:36:16.197Z,0.00
2018-03-11T04:37:16.246Z,0.00
2018-03-11T04:38:16.217Z,0.00
2018-03-11T04:39:16.195Z,0.00
2018-03-11T04:40:16.202Z,0.00
2018-03-11T04:41:16.205Z,0.00
2018-03-11T04:42:16.237Z,0.00
2018-03-11T04:43:16.199Z,0.00
2018-03-11T04:44:16.214Z,0.00
2018-03-11T04:45:16.191Z,0.00
2018-03-11T04:46:16.184Z,0.00
2018-03-11T04:47:16.232Z,0.00
2018-03-11T04:48:16.186Z,0.00
2018-03-11T04:49:16.190Z,0.00
2018-03-11T04:50:16.190Z,0.00
2018-03-11T04:51:16.215Z,0.00
2018-03-11T04:52:16.226Z,0.00
2018-03-11T04:53:16.186Z,0.00
2018-03-11T04:54:16.175Z,0.00
2018-03-11T04:55:16.177Z,0.00
2018-03-11T04:56:16.176Z,0.00
2018-03-11T04:57:16.892Z,0.00
2018-03-11T04:58:16.246Z,0.00
2018-03-11T04:59:16.180Z,0.00
2018-03-11T05:00:16.181Z,0.00
2018-03-11T05:01:16.180Z,0.00
2018-03-11T05:02:16.210Z,0.00
2018-03-11T05:03:16.402Z,0.00
2018-03-11T05:04:16.166Z,0.00
2018-03-11T05:05:16.173Z,0.00
2018-03-11T05:06:16.160Z,0.00
2018-03-11T05:07:16.210Z,0.00
2018-03-11T05:08:16.189Z,0.00
2018-03-11T05:09:16.170Z,0.00
2018-03-11T05:10:16.167Z,0.00
2018-03-11T05:11:16.155Z,0.00
2018-03-11T05:12:16.221Z,0.00
2018-03-11T05:13:16.152Z,0.00
2018-03-11T05:14:16.150Z,0.00
2018-03-11T05:15:16.172Z,0.00
2018-03-11T05:16:16.159Z,0.00
2018-03-11T05:17:16.192Z,0.00
2018-03-11T05:18:16.184Z,0.00
2018-03-11T05:19:16.146Z,0.00
2018-03-11T05:20:16.153Z,0.00
2018-03-11T05:21:16.142Z,0.00
2018-03-11T05:22:16.174Z,0.00
2018-03-11T05:23:16.179Z,0.00
2018-03-11T05:24:16.196Z,5.63
2018-03-11T05:25:16.146Z,5.63
2018-03-11T05:26:16.138Z,5.63
2018-03-11T05:27:16.145Z,5.63
2018-03-11T05:28:16.173Z,5.63
2018-03-11T05:29:16.996Z,11.25
2018-03-11T05:30:16.133Z,11.25
2018-03-11T05:31:16.132Z,16.88
2018-03-11T05:32:16.161Z,16.88
2018-03-11T05:33:16.175Z,16.88
2018-03-11T05:34:16.135Z,22.50
2018-03-11T05:35:16.130Z,22.50
2018-03-11T05:36:16.124Z,22.50
2018-03-11T05:37:16.123Z,28.13
2018-03-11T05:38:16.169Z,28.13
2018-03-11T05:39:16.139Z,33.75
2018-03-11T05:40:16.121Z,33.75
2018-03-11T05:41:16.132Z,39.38
2018-03-11T05:42:16.166Z,45.00
2018-03-11T05:43:16.155Z,45.00
2018-03-11T05:44:16.125Z,50.63
2018-03-11T05:45:16.117Z,56.25
2018-03-11T05:46:16.138Z,56.25
2018-03-11T05:47:16.113Z,61.88
2018-03-11T05:48:16.147Z,67.50
2018-03-11T05:49:16.117Z,67.50
2018-03-11T05:50:16.110Z,73.13
2018-03-11T05:51:16.107Z,78.75
2018-03-11T05:52:16.848Z,78.75
2018-03-11T05:53:16.142Z,84.38
2018-03-11T05:54:16.106Z,90.00
2018-03-11T05:55:16.108Z,95.63
2018-03-11T05:56:16.116Z,95.63
2018-03-11T05:57:16.137Z,101.25
2018-03-11T05:58:16.106Z,106.88
2018-03-11T05:59:16.111Z,112.50
2018-03-11T06:00:16.106Z,118.13
2018-03-11T06:01:16.638Z,123.75
2018-03-11T06:02:16.133Z,123.75
2018-03-11T06:03:16.116Z,123.75
2018-03-11T06:04:16.098Z,129.38
2018-03-11T06:05:16.101Z,135.00
2018-03-11T06:06:16.099Z,140.63
2018-03-11T06:07:16.135Z,135.00
2018-03-11T06:08:16.098Z,146.25
2018-03-11T06:09:16.097Z,151.88
2018-03-11T06:10:16.095Z,163.13
2018-03-11T06:11:16.090Z,168.75
2018-03-11T06:12:16.121Z,163.13
2018-03-11T06:13:16.083Z,168.75
2018-03-11T06:14:16.080Z,174.38
2018-03-11T06:15:16.083Z,180.00
2018-03-11T06:16:16.079Z,191.25
2018-03-11T06:17:16.126Z,202.50
2018-03-11T06:18:16.087Z,208.13
2018-03-11T06:19:16.113Z,213.75
2018-03-11T06:20:16.088Z,208.13
2018-03-11T06:21:16.083Z,213.75
2018-03-11T06:22:16.086Z,225.00
2018-03-11T06:23:16.119Z,241.88
2018-03-11T06:24:16.079Z,270.00
2018-03-11T06:25:16.080Z,292.50
2018-03-11T06:26:16.080Z,298.13
2018-03-11T06:27:16.209Z,309.38
2018-03-11T06:28:16.112Z,309.38
2018-03-11T06:29:16.072Z,315.00
2018-03-11T06:30:16.119Z,315.00
2018-03-11T06:31:16.077Z,315.00
2018-03-11T06:32:16.076Z,320.63
2018-03-11T06:33:16.109Z,337.50
2018-03-11T06:34:16.137Z,354.38
2018-03-11T06:35:16.205Z,298.13
2018-03-11T06:36:16.081Z,275.63
2018-03-11T06:37:16.074Z,388.13
2018-03-11T06:38:16.113Z,444.38
2018-03-11T06:39:16.075Z,641.25
2018-03-11T06:40:16.084Z,703.13
2018-03-11T06:41:16.082Z,635.63
2018-03-11T06:42:16.080Z,646.88
2018-03-11T06:43:16.112Z,736.88
2018-03-11T06:44:16.074Z,568.13
2018-03-11T06:45:16.074Z,663.75
2018-03-11T06:46:16.075Z,703.13
2018-03-11T06:47:16.072Z,793.13
2018-03-11T06:48:16.149Z,810.00
2018-03-11T06:49:16.066Z,860.63
2018-03-11T06:50:16.077Z,911.25
2018-03-11T06:51:16.087Z,894.38
2018-03-11T06:52:16.086Z,855.00
2018-03-11T06:53:16.112Z,877.50
2018-03-11T06:54:16.085Z,888.75
2018-03-11T06:55:16.070Z,911.25
2018-03-11T06:56:16.089Z,894.38
2018-03-11T06:57:16.081Z,894.38
2018-03-11T06:58:16.207Z,883.13
2018-03-11T06:59:16.113Z,928.13
2018-03-11T07:00:16.091Z,933.75
2018-03-11T07:01:16.089Z,961.88
2018-03-11T07:02:16.090Z,990.00
2018-03-11T07:03:16.093Z,1001.25
2018-03-11T07:04:16.172Z,995.63
2018-03-11T07:05:16.091Z,1023.75
2018-03-11T07:06:16.123Z,1023.75
2018-03-11T07:07:16.102Z,1012.50
2018-03-11T07:08:16.197Z,1001.25
2018-03-11T07:09:16.166Z,1023.75
2018-03-11T07:10:16.098Z,1074.38
2018-03-11T07:11:16.102Z,1068.75
2018-03-11T07:12:17.130Z,1040.63
2018-03-11T07:13:16.198Z,1113.75
2018-03-11T07:14:16.288Z,1130.63
2018-03-11T07:15:16.120Z,1119.38
2018-03-11T07:16:16.144Z,1153.13
2018-03-11T07:17:16.126Z,1147.50
2018-03-11T07:18:16.122Z,1175.63
2018-03-11T07:19:16.176Z,1198.13
2018-03-11T07:20:16.128Z,1068.75
2018-03-11T07:21:16.132Z,1085.63
2018-03-11T07:22:16.134Z,1153.13
2018-03-11T07:23:16.139Z,1125.00
2018-03-11T07:24:16.189Z,1125.00
2018-03-11T07:25:16.146Z,1091.25
2018-03-11T07:26:16.150Z,1147.50
2018-03-11T07:27:16.168Z,1181.25
2018-03-11T07:28:16.169Z,1147.50
2018-03-11T07:29:16.204Z,1113.75
2018-03-11T07:30:16.259Z,1063.13
2018-03-11T07:31:16.179Z,1063.13
2018-03-11T07:32:16.186Z,1057.50
2018-03-11T07:33:16.210Z,1046.25
2018-03-11T07:34:16.193Z,1046.25
2018-03-11T07:35:16.239Z,1046.25
2018-03-11T07:36:16.195Z,1051.88
2018-03-11T07:37:16.220Z,1012.50
2018-03-11T07:38:16.211Z,978.75
2018-03-11T07:39:16.221Z,956.25
2018-03-11T07:40:16.270Z,939.38
2018-03-11T07:41:16.223Z,939.38
2018-03-11T07:42:16.224Z,922.50
2018-03-11T07:43:16.231Z,905.63
2018-03-11T07:44:16.264Z,928.13
2018-03-11T07:45:16.291Z,945.00
2018-03-11T07:46:16.250Z,945.00
2018-03-11T07:47:16.254Z,1001.25
2018-03-11T07:48:16.269Z,1096.88
2018-03-11T07:49:16.310Z,1063.13
2018-03-11T07:50:16.322Z,1063.13
2018-03-11T07:51:16.315Z,1046.25
2018-03-11T07:52:16.292Z,1012.50
2018-03-11T07:53:16.291Z,1012.50
2018-03-11T07:54:16.305Z,1068.75
2018-03-11T07:55:16.344Z,1141.88
2018-03-11T07:56:16.362Z,1248.75
2018-03-11T07:57:16.325Z,1271.25
2018-03-11T07:58:16.344Z,1310.63
2018-03-11T07:59:16.348Z,1389.38
2018-03-11T08:00:16.397Z,1383.75
2018-03-11T08:01:16.354Z,1333.13
2018-03-11T08:02:16.391Z,1237.50
2018-03-11T08:03:16.381Z,1243.13
2018-03-11T08:04:16.389Z,1288.13
2018-03-11T08:05:16.438Z,1366.88
2018-03-11T08:06:16.398Z,1372.50
2018-03-11T08:07:16.416Z,1282.50
2018-03-11T08:08:16.441Z,1192.50
2018-03-11T08:09:16.435Z,1147.50
2018-03-11T08:10:16.520Z,1153.13
2018-03-11T08:11:16.452Z,1181.25
2018-03-11T08:12:16.462Z,1198.13
2018-03-11T08:13:16.482Z,1175.63
2018-03-11T08:14:16.474Z,1147.50
2018-03-11T08:15:16.519Z,1136.25
2018-03-11T08:16:16.549Z,1074.38
2018-03-11T08:17:16.510Z,1051.88
2018-03-11T08:18:16.525Z,1068.75
2018-03-11T08:19:16.532Z,1035.00
2018-03-11T08:20:16.622Z,1018.13
2018-03-11T08:21:16.539Z,1006.88
2018-03-11T08:22:16.548Z,1035.00
2018-03-11T08:23:16.560Z,1029.38
2018-03-11T08:24:16.606Z,1023.75
2018-03-11T08:25:16.628Z,1040.63
2018-03-11T08:26:16.645Z,1051.88
2018-03-11T08:27:16.624Z,1068.75
2018-03-11T08:28:16.609Z,1091.25
2018-03-11T08:29:16.616Z,1040.63
2018-03-11T08:30:16.673Z,1057.50
2018-03-11T08:31:16.644Z,1085.63
2018-03-11T08:32:16.657Z,1091.25
2018-03-11T08:33:16.664Z,1102.50
2018-03-11T08:34:16.678Z,1102.50
2018-03-11T08:35:16.757Z,1108.13
2018-03-11T08:36:16.717Z,1102.50
2018-03-11T08:37:16.697Z,1125.00
2018-03-11T08:38:16.719Z,1181.25
2018-03-11T08:39:16.730Z,1209.38
2018-03-11T08:40:16.772Z,1260.00
2018-03-11T08:41:16.740Z,1237.50
2018-03-11T08:42:16.747Z,1220.63
2018-03-11T08:43:16.757Z,1220.63
2018-03-11T08:44:16.782Z,1220.63
2018-03-11T08:45:16.827Z,1248.75
2018-03-11T08:46:16.792Z,1293.75
2018-03-11T08:47:16.812Z,1350.00
2018-03-11T08:48:16.826Z,1361.25
2018-03-11T08:49:16.859Z,1440.00
2018-03-11T08:50:16.873Z,1518.75
2018-03-11T08:51:16.845Z,1693.13
2018-03-11T08:52:16.868Z,2188.13
2018-03-11T08:53:17.644Z,2739.38
2018-03-11T08:54:16.890Z,2975.63
2018-03-11T08:55:16.929Z,2975.63
2018-03-11T08:56:16.916Z,2880.00
2018-03-11T08:57:16.922Z,2351.25
2018-03-11T08:58:16.928Z,2446.88
2018-03-11T08:59:16.989Z,2463.75
2018-03-11T09:00:16.981Z,2278.13
2018-03-11T09:01:16.956Z,2278.13
2018-03-11T09:02:16.966Z,2216.25
2018-03-11T09:03:16.983Z,2047.50
2018-03-11T09:04:17.036Z,2143.13
2018-03-11T09:05:17.008Z,2115.00
2018-03-11T09:06:17.048Z,2008.13
2018-03-11T09:07:17.039Z,2041.88
2018-03-11T09:08:17.040Z,2081.25
2018-03-11T09:09:17.085Z,2058.75
2018-03-11T09:10:17.056Z,2002.50
2018-03-11T09:11:17.060Z,2013.75
2018-03-11T09:12:17.070Z,2086.88
2018-03-11T09:13:17.178Z,2126.25
2018-03-11T09:14:17.153Z,2047.50
2018-03-11T09:15:17.108Z,2160.00
2018-03-11T09:16:17.167Z,2193.75
2018-03-11T09:17:17.123Z,2126.25
2018-03-11T09:18:17.141Z,2086.88
2018-03-11T09:19:17.153Z,2025.00
2018-03-11T09:20:17.201Z,1710.00
2018-03-11T09:21:17.173Z,1901.25
2018-03-11T09:22:17.186Z,1732.50
2018-03-11T09:23:17.208Z,1755.00
2018-03-11T09:24:17.266Z,1771.88
2018-03-11T09:25:17.212Z,1462.50
2018-03-11T09:26:17.221Z,1203.75
2018-03-11T09:27:17.239Z,1130.63
2018-03-11T09:28:17.248Z,1282.50
2018-03-11T09:29:17.305Z,1698.75
2018-03-11T09:30:18.164Z,1648.13
2018-03-11T09:31:17.274Z,1518.75
2018-03-11T09:32:17.279Z,1743.75
2018-03-11T09:33:17.300Z,1591.88
2018-03-11T09:34:17.348Z,1333.13
2018-03-11T09:35:17.311Z,1243.13
2018-03-11T09:36:17.345Z,1186.88
2018-03-11T09:37:17.336Z,1119.38
2018-03-11T09:38:17.336Z,1254.38
2018-03-11T09:39:17.345Z,1411.88
2018-03-11T09:40:17.443Z,1991.25
2018-03-11T09:41:17.360Z,2261.25
2018-03-11T09:42:17.382Z,2233.13
2018-03-11T09:43:17.393Z,2289.38
2018-03-11T09:44:17.435Z,2272.50
2018-03-11T09:45:17.407Z,2227.50
2018-03-11T09:46:17.409Z,2137.50
2018-03-11T09:47:17.433Z,2165.63
2018-03-11T09:48:17.427Z,2193.75
2018-03-11T09:49:17.481Z,2936.25
2018-03-11T09:50:17.657Z,2986.88
2018-03-11T09:51:17.462Z,2610.00
2018-03-11T09:52:17.474Z,2576.25
2018-03-11T09:53:17.487Z,2598.75
2018-03-11T09:54:17.545Z,2407.50
2018-03-11T09:55:17.507Z,2345.63
2018-03-11T09:56:17.509Z,2300.63
2018-03-11T09:57:17.531Z,2379.38
2018-03-11T09:58:17.566Z,2598.75
2018-03-11T09:59:17.596Z,2801.25
2018-03-11T10:00:17.560Z,2553.75
2018-03-11T10:01:17.580Z,2362.50
2018-03-11T10:02:17.592Z,2711.25
2018-03-11T10:03:17.600Z,2705.63
2018-03-11T10:04:17.665Z,2570.63
2018-03-11T10:05:17.629Z,2525.63
2018-03-11T10:06:17.640Z,2503.13
2018-03-11T10:07:17.655Z,2795.63
2018-03-11T10:08:17.666Z,2649.38
2018-03-11T10:09:17.738Z,2491.88
2018-03-11T10:10:17.700Z,2435.63
2018-03-11T10:11:18.077Z,2671.88
2018-03-11T10:12:17.720Z,2407.50
2018-03-11T10:13:17.741Z,2430.00
2018-03-11T10:14:17.819Z,2581.88
2018-03-11T10:15:17.777Z,2857.50
2018-03-11T10:16:17.795Z,2593.13
2018-03-11T10:17:17.801Z,2683.13
2018-03-11T10:18:17.803Z,1597.50
2018-03-11T10:19:17.869Z,2008.13
2018-03-11T10:20:17.856Z,1839.38
2018-03-11T10:21:17.860Z,2030.63
2018-03-11T10:22:17.860Z,1310.63
2018-03-11T10:23:17.875Z,1541.25
2018-03-11T10:24:17.938Z,1563.75
2018-03-11T10:25:17.909Z,1378.13
2018-03-11T10:26:17.925Z,1794.38
2018-03-11T10:27:17.936Z,2148.75
2018-03-11T10:28:17.950Z,2278.13
2018-03-11T10:29:17.995Z,2283.75
2018-03-11T10:30:17.974Z,2182.50
2018-03-11T10:31:18.002Z,1850.63
2018-03-11T10:32:18.000Z,2396.25
2018-03-11T10:33:18.002Z,2930.63
2018-03-11T10:34:18.069Z,3076.88
2018-03-11T10:35:18.031Z,2975.63
2018-03-11T10:36:18.051Z,2930.63
2018-03-11T10:37:18.062Z,2919.38
2018-03-11T10:38:18.076Z,2767.50
2018-03-11T10:39:18.154Z,2638.13
2018-03-11T10:40:18.095Z,2660.63
2018-03-11T10:41:18.108Z,2958.75
2018-03-11T10:42:18.129Z,2790.00
2018-03-11T10:43:18.144Z,2368.13
2018-03-11T10:44:18.197Z,2520.00
2018-03-11T10:45:18.178Z,2593.13
2018-03-11T10:46:18.242Z,2756.25
2018-03-11T10:47:18.200Z,2610.00
2018-03-11T10:48:18.210Z,2283.75
2018-03-11T10:49:18.276Z,2548.13
2018-03-11T10:50:18.314Z,2497.50
2018-03-11T10:51:18.252Z,2458.13
2018-03-11T10:52:18.275Z,2863.13
2018-03-11T10:53:18.292Z,3037.50
2018-03-11T10:54:18.343Z,3020.63
2018-03-11T10:55:18.349Z,3015.00
2018-03-11T10:56:18.657Z,2919.38
2018-03-11T10:57:18.373Z,2913.75
2018-03-11T10:58:18.358Z,2784.38
2018-03-11T10:59:18.379Z,3172.50
2018-03-11T11:00:18.429Z,3082.50
2018-03-11T11:01:18.403Z,2930.63
2018-03-11T11:02:18.482Z,2970.00
2018-03-11T11:03:18.449Z,3031.88
2018-03-11T11:04:18.493Z,2998.13
2018-03-11T11:05:18.472Z,2823.75
2018-03-11T11:06:18.498Z,2913.75
2018-03-11T11:07:18.521Z,2941.88
2018-03-11T11:08:18.544Z,2998.13
2018-03-11T11:09:18.601Z,3127.50
2018-03-11T11:10:18.558Z,3510.00
2018-03-11T11:11:18.577Z,3487.50
2018-03-11T11:12:18.617Z,3245.63
2018-03-11T11:13:18.623Z,3037.50
2018-03-11T11:14:18.668Z,3211.88
2018-03-11T11:15:18.702Z,3285.00
2018-03-11T11:16:18.693Z,3341.25
2018-03-11T11:17:19.187Z,3273.75
2018-03-11T11:18:18.712Z,3386.25
2018-03-11T11:19:18.800Z,3251.25
2018-03-11T11:20:18.809Z,3386.25
2018-03-11T11:21:18.770Z,3504.38
2018-03-11T11:22:18.780Z,3521.25
2018-03-11T11:23:18.802Z,3408.75
2018-03-11T11:24:18.890Z,3566.25
2018-03-11T11:25:18.885Z,3633.75
2018-03-11T11:26:18.896Z,3729.38
2018-03-11T11:27:18.894Z,3538.13
2018-03-11T11:28:18.909Z,3318.75
2018-03-11T11:29:18.973Z,3262.50
2018-03-11T11:30:18.954Z,3262.50
2018-03-11T11:31:19.030Z,3268.13
2018-03-11T11:32:18.993Z,3414.38
2018-03-11T11:33:19.003Z,2193.75
2018-03-11T11:34:19.060Z,2503.13
2018-03-11T11:35:19.092Z,2244.38
2018-03-11T11:36:19.075Z,1670.63
2018-03-11T11:37:19.219Z,1344.38
2018-03-11T11:38:19.102Z,3240.00
2018-03-11T11:39:19.189Z,3442.50
2018-03-11T11:40:19.177Z,3144.38
2018-03-11T11:41:19.166Z,2553.75
2018-03-11T11:42:19.183Z,2610.00
2018-03-11T11:43:19.200Z,3313.13
2018-03-11T11:44:19.254Z,3588.75
2018-03-11T11:45:19.272Z,3645.00
2018-03-11T11:46:19.252Z,3223.13
2018-03-11T11:47:20.211Z,3268.13
2018-03-11T11:48:19.285Z,3420.00
2018-03-11T11:49:19.333Z,3673.13
2018-03-11T11:50:19.361Z,3245.63
2018-03-11T11:51:19.337Z,3251.25
2018-03-11T11:52:19.354Z,3217.50
2018-03-11T11:53:19.371Z,2801.25
2018-03-11T11:54:19.440Z,2120.63
2018-03-11T11:55:19.404Z,2688.75
2018-03-11T11:56:19.413Z,2739.38
2018-03-11T11:57:19.432Z,3510.00
2018-03-11T11:58:19.456Z,3448.13
2018-03-11T11:59:19.502Z,3408.75
2018-03-11T12:00:19.490Z,3037.50
2018-03-11T12:01:19.500Z,2053.13
2018-03-11T12:02:19.515Z,1535.63
2018-03-11T12:03:19.534Z,1445.63
2018-03-11T12:04:19.596Z,1451.25
2018-03-11T12:05:19.581Z,1569.38
2018-03-11T12:06:19.588Z,2086.88
2018-03-11T12:07:19.742Z,1861.88
2018-03-11T12:08:19.609Z,2058.75
2018-03-11T12:09:19.686Z,2615.63
2018-03-11T12:10:19.649Z,2728.13
2018-03-11T12:11:19.664Z,2109.38
2018-03-11T12:12:19.679Z,1963.13
2018-03-11T12:13:19.684Z,1996.88
2018-03-11T12:14:19.747Z,1839.38
2018-03-11T12:15:20.633Z,1991.25
2018-03-11T12:16:19.747Z,2205.00
2018-03-11T12:17:19.771Z,2165.63
2018-03-11T12:18:19.764Z,1783.13
2018-03-11T12:19:19.816Z,2165.63
2018-03-11T12:20:19.805Z,2486.25
2018-03-11T12:21:19.804Z,2958.75
2018-03-11T12:22:19.822Z,2964.38
2018-03-11T12:23:19.825Z,2767.50
2018-03-11T12:24:19.896Z,2812.50
2018-03-11T12:25:19.858Z,2677.50
2018-03-11T12:26:19.866Z,2070.00
2018-03-11T12:27:19.891Z,1698.75
2018-03-11T12:28:19.905Z,1850.63
2018-03-11T12:29:19.945Z,2036.25
2018-03-11T12:30:19.920Z,2143.13
2018-03-11T12:31:19.953Z,2441.25
2018-03-11T12:32:20.028Z,2188.13
2018-03-11T12:33:19.973Z,2193.75
2018-03-11T12:34:20.066Z,1816.88
2018-03-11T12:35:20.000Z,2086.88
2018-03-11T12:36:20.017Z,2041.88
2018-03-11T12:37:20.032Z,1890.00
2018-03-11T12:38:20.039Z,2086.88
2018-03-11T12:39:20.115Z,2070.00